sensor_id;sensor_type;location;lat;lon;timestamp;pressure;altitude;pressure_sealevel;temperature;humidity
44103;BME280;29769;42.178;24.742;2023-08-01T00:00:04;99119.19;;;22.02;100.00
44103;BME280;29769;42.178;24.742;2023-08-01T00:02:57;99105.44;;;21.94;100.00
44103;BME280;29769;42.178;24.742;2023-08-01T00:05:43;99114.09;;;21.85;100.00
44103;BME280;29769;42.178;24.742;2023-08-01T00:08:29;99117.97;;;21.81;100.00
44103;BME280;29769;42.178;24.742;2023-08-01T00:11:14;99106.38;;;21.81;100.00
44103;BME280;29769;42.178;24.742;2023-08-01T00:14:00;99101.91;;;21.81;100.00
44103;BME280;29769;42.178;24.742;2023-08-01T00:16:46;99108.00;;;21.83;100.00
44103;BME280;29769;42.178;24.742;2023-08-01T00:19:30;99103.81;;;21.92;100.00
44103;BME280;29769;42.178;24.742;2023-08-01T00:22:15;99104.91;;;22.02;100.00
44103;BME280;29769;42.178;24.742;2023-08-01T00:25:01;99097.28;;;22.08;100.00
44103;BME280;29769;42.178;24.742;2023-08-01T00:27:45;99095.59;;;22.07;100.00
44103;BME280;29769;42.178;24.742;2023-08-01T00:30:31;99098.06;;;22.10;100.00
44103;BME280;29769;42.178;24.742;2023-08-01T00:33:16;99083.28;;;22.05;100.00
44103;BME280;29769;42.178;24.742;2023-08-01T00:36:01;99097.38;;;22.20;100.00
44103;BME280;29769;42.178;24.742;2023-08-01T00:38:46;99086.91;;;22.16;100.00
44103;BME280;29769;42.178;24.742;2023-08-01T00:41:31;99090.66;;;22.14;100.00
44103;BME280;29769;42.178;24.742;2023-08-01T00:44:16;99088.41;;;22.08;100.00
44103;BME280;29769;42.178;24.742;2023-08-01T00:47:01;99081.88;;;21.99;100.00
44103;BME280;29769;42.178;24.742;2023-08-01T00:49:46;99078.88;;;21.91;100.00
44103;BME280;29769;42.178;24.742;2023-08-01T00:52:31;99056.06;;;21.73;100.00
44103;BME280;29769;42.178;24.742;2023-08-01T00:55:16;99073.63;;;21.77;100.00
44103;BME280;29769;42.178;24.742;2023-08-01T00:58:01;99069.69;;;21.70;100.00
44103;BME280;29769;42.178;24.742;2023-08-01T01:00:48;99067.53;;;21.62;100.00
44103;BME280;29769;42.178;24.742;2023-08-01T01:03:33;99069.56;;;21.59;100.00
44103;BME280;29769;42.178;24.742;2023-08-01T01:06:25;99060.03;;;21.55;100.00
44103;BME280;29769;42.178;24.742;2023-08-01T01:09:18;99058.31;;;21.54;100.00
44103;BME280;29769;42.178;24.742;2023-08-01T01:12:04;99058.44;;;21.52;100.00
44103;BME280;29769;42.178;24.742;2023-08-01T01:14:49;99057.28;;;21.56;100.00
44103;BME280;29769;42.178;24.742;2023-08-01T01:17:34;99054.78;;;21.53;100.00
44103;BME280;29769;42.178;24.742;2023-08-01T01:20:22;99042.50;;;21.51;100.00
44103;BME280;29769;42.178;24.742;2023-08-01T01:23:09;99040.91;;;21.48;100.00
44103;BME280;29769;42.178;24.742;2023-08-01T01:25:54;99028.47;;;21.47;100.00
44103;BME280;29769;42.178;24.742;2023-08-01T01:28:41;99034.03;;;21.44;100.00
44103;BME280;29769;42.178;24.742;2023-08-01T01:31:27;99031.47;;;21.43;100.00
44103;BME280;29769;42.178;24.742;2023-08-01T01:34:12;99026.13;;;21.43;100.00
44103;BME280;29769;42.178;24.742;2023-08-01T01:36:57;99025.16;;;21.44;100.00
44103;BME280;29769;42.178;24.742;2023-08-01T01:39:42;99022.28;;;21.47;100.00
44103;BME280;29769;42.178;24.742;2023-08-01T01:42:27;99024.84;;;21.48;100.00
44103;BME280;29769;42.178;24.742;2023-08-01T01:45:12;99026.53;;;21.49;100.00
44103;BME280;29769;42.178;24.742;2023-08-01T01:47:57;99034.88;;;21.45;100.00
44103;BME280;29769;42.178;24.742;2023-08-01T01:50:41;99024.63;;;21.39;100.00
44103;BME280;29769;42.178;24.742;2023-08-01T01:53:27;99028.25;;;21.38;100.00
44103;BME280;29769;42.178;24.742;2023-08-01T01:56:11;99031.91;;;21.37;100.00
44103;BME280;29769;42.178;24.742;2023-08-01T01:58:56;99028.69;;;21.32;100.00
44103;BME280;29769;42.178;24.742;2023-08-01T02:01:41;99028.47;;;21.22;100.00
44103;BME280;29769;42.178;24.742;2023-08-01T02:04:25;99030.72;;;21.15;100.00
44103;BME280;29769;42.178;24.742;2023-08-01T02:07:10;99031.94;;;20.97;100.00
44103;BME280;29769;42.178;24.742;2023-08-01T02:09:55;99035.34;;;20.86;100.00
44103;BME280;29769;42.178;24.742;2023-08-01T02:12:40;99041.06;;;20.80;100.00
44103;BME280;29769;42.178;24.742;2023-08-01T02:15:25;99040.44;;;20.77;100.00
44103;BME280;29769;42.178;24.742;2023-08-01T02:18:10;99035.00;;;20.78;100.00
44103;BME280;29769;42.178;24.742;2023-08-01T02:20:55;99041.00;;;20.82;100.00
44103;BME280;29769;42.178;24.742;2023-08-01T02:23:40;99039.78;;;20.73;100.00
44103;BME280;29769;42.178;24.742;2023-08-01T02:26:25;99046.44;;;20.54;100.00
44103;BME280;29769;42.178;24.742;2023-08-01T02:29:10;99049.00;;;20.28;100.00
44103;BME280;29769;42.178;24.742;2023-08-01T02:31:55;99043.31;;;20.20;100.00
44103;BME280;29769;42.178;24.742;2023-08-01T02:34:40;99053.22;;;20.18;100.00
44103;BME280;29769;42.178;24.742;2023-08-01T02:37:26;99054.06;;;20.33;100.00
44103;BME280;29769;42.178;24.742;2023-08-01T02:40:12;99060.53;;;20.43;100.00
44103;BME280;29769;42.178;24.742;2023-08-01T02:42:56;99052.09;;;20.49;100.00
44103;BME280;29769;42.178;24.742;2023-08-01T02:45:41;99052.97;;;20.50;100.00
44103;BME280;29769;42.178;24.742;2023-08-01T02:48:26;99057.25;;;20.52;100.00
44103;BME280;29769;42.178;24.742;2023-08-01T02:51:11;99056.75;;;20.60;100.00
44103;BME280;29769;42.178;24.742;2023-08-01T02:53:56;99064.47;;;20.64;100.00
44103;BME280;29769;42.178;24.742;2023-08-01T02:56:41;99059.56;;;20.71;100.00
44103;BME280;29769;42.178;24.742;2023-08-01T02:59:26;99058.28;;;20.76;100.00
44103;BME280;29769;42.178;24.742;2023-08-01T03:02:11;99070.53;;;20.93;100.00
44103;BME280;29769;42.178;24.742;2023-08-01T03:04:55;99067.56;;;20.98;100.00
44103;BME280;29769;42.178;24.742;2023-08-01T03:07:42;99069.16;;;21.00;100.00
44103;BME280;29769;42.178;24.742;2023-08-01T03:10:26;99056.97;;;20.96;100.00
44103;BME280;29769;42.178;24.742;2023-08-01T03:13:12;99068.75;;;21.06;100.00
44103;BME280;29769;42.178;24.742;2023-08-01T03:15:56;99063.06;;;20.98;100.00
44103;BME280;29769;42.178;24.742;2023-08-01T03:18:42;99073.03;;;21.09;100.00
44103;BME280;29769;42.178;24.742;2023-08-01T03:21:27;99078.94;;;21.14;100.00
44103;BME280;29769;42.178;24.742;2023-08-01T03:24:12;99078.63;;;21.18;100.00
44103;BME280;29769;42.178;24.742;2023-08-01T03:26:57;99081.22;;;21.20;100.00
44103;BME280;29769;42.178;24.742;2023-08-01T03:29:42;99079.63;;;21.03;100.00
44103;BME280;29769;42.178;24.742;2023-08-01T03:32:27;99084.00;;;20.92;100.00
44103;BME280;29769;42.178;24.742;2023-08-01T03:35:12;99041.09;;;20.54;100.00
44103;BME280;29769;42.178;24.742;2023-08-01T03:37:58;99090.81;;;20.83;100.00
44103;BME280;29769;42.178;24.742;2023-08-01T03:40:43;99095.41;;;20.81;100.00
44103;BME280;29769;42.178;24.742;2023-08-01T03:43:28;99091.78;;;20.82;100.00
44103;BME280;29769;42.178;24.742;2023-08-01T03:46:13;99101.50;;;20.83;100.00
44103;BME280;29769;42.178;24.742;2023-08-01T03:48:59;99094.75;;;20.77;100.00
44103;BME280;29769;42.178;24.742;2023-08-01T03:51:44;99101.91;;;20.77;100.00
44103;BME280;29769;42.178;24.742;2023-08-01T03:54:30;99103.50;;;20.67;100.00
44103;BME280;29769;42.178;24.742;2023-08-01T03:57:15;99104.44;;;20.66;100.00
44103;BME280;29769;42.178;24.742;2023-08-01T04:00:00;99099.75;;;20.69;100.00
44103;BME280;29769;42.178;24.742;2023-08-01T04:02:44;99089.50;;;20.76;100.00
44103;BME280;29769;42.178;24.742;2023-08-01T04:05:29;99099.78;;;20.82;100.00
44103;BME280;29769;42.178;24.742;2023-08-01T04:08:14;99097.78;;;20.85;100.00
44103;BME280;29769;42.178;24.742;2023-08-01T04:10:59;99092.13;;;20.90;100.00
44103;BME280;29769;42.178;24.742;2023-08-01T04:13:44;99099.75;;;20.96;100.00
44103;BME280;29769;42.178;24.742;2023-08-01T04:16:29;99101.16;;;21.02;100.00
44103;BME280;29769;42.178;24.742;2023-08-01T04:19:13;99086.91;;;21.01;100.00
44103;BME280;29769;42.178;24.742;2023-08-01T04:21:58;99099.19;;;21.18;100.00
44103;BME280;29769;42.178;24.742;2023-08-01T04:24:43;99102.19;;;21.26;100.00
44103;BME280;29769;42.178;24.742;2023-08-01T04:27:28;99090.97;;;21.21;100.00
44103;BME280;29769;42.178;24.742;2023-08-01T04:30:13;99106.16;;;21.33;100.00
44103;BME280;29769;42.178;24.742;2023-08-01T04:32:58;99104.44;;;21.32;100.00
44103;BME280;29769;42.178;24.742;2023-08-01T04:35:43;99110.34;;;21.37;100.00
44103;BME280;29769;42.178;24.742;2023-08-01T04:38:28;99100.41;;;21.52;100.00
44103;BME280;29769;42.178;24.742;2023-08-01T04:41:13;99094.09;;;21.65;100.00
44103;BME280;29769;42.178;24.742;2023-08-01T04:43:58;99100.28;;;21.91;100.00
44103;BME280;29769;42.178;24.742;2023-08-01T04:46:43;99106.66;;;22.03;100.00
44103;BME280;29769;42.178;24.742;2023-08-01T04:49:27;99099.75;;;22.24;100.00
44103;BME280;29769;42.178;24.742;2023-08-01T04:52:12;99105.72;;;22.28;100.00
44103;BME280;29769;42.178;24.742;2023-08-01T04:54:57;99108.88;;;22.45;100.00
44103;BME280;29769;42.178;24.742;2023-08-01T04:57:42;99110.13;;;22.65;100.00
44103;BME280;29769;42.178;24.742;2023-08-01T05:00:27;99106.47;;;22.66;100.00
44103;BME280;29769;42.178;24.742;2023-08-01T05:03:12;99101.66;;;22.71;100.00
44103;BME280;29769;42.178;24.742;2023-08-01T05:05:57;99105.00;;;22.86;100.00
44103;BME280;29769;42.178;24.742;2023-08-01T05:08:42;99090.25;;;22.80;100.00
44103;BME280;29769;42.178;24.742;2023-08-01T05:11:27;99108.34;;;22.89;100.00
44103;BME280;29769;42.178;24.742;2023-08-01T05:14:12;99113.84;;;22.99;100.00
44103;BME280;29769;42.178;24.742;2023-08-01T05:16:57;99110.13;;;23.13;100.00
44103;BME280;29769;42.178;24.742;2023-08-01T05:19:41;99120.38;;;23.08;100.00
44103;BME280;29769;42.178;24.742;2023-08-01T05:22:26;99122.91;;;23.09;100.00
44103;BME280;29769;42.178;24.742;2023-08-01T05:25:11;99117.19;;;23.14;100.00
44103;BME280;29769;42.178;24.742;2023-08-01T05:27:56;99130.06;;;23.21;100.00
44103;BME280;29769;42.178;24.742;2023-08-01T05:30:41;99120.31;;;23.31;100.00
44103;BME280;29769;42.178;24.742;2023-08-01T05:33:26;99120.03;;;23.47;100.00
44103;BME280;29769;42.178;24.742;2023-08-01T05:36:11;99124.44;;;23.59;100.00
44103;BME280;29769;42.178;24.742;2023-08-01T05:38:56;99131.56;;;23.82;100.00
44103;BME280;29769;42.178;24.742;2023-08-01T05:41:41;99125.59;;;24.01;100.00
44103;BME280;29769;42.178;24.742;2023-08-01T05:44:26;99126.59;;;24.11;100.00
44103;BME280;29769;42.178;24.742;2023-08-01T05:47:11;99121.81;;;24.15;100.00
44103;BME280;29769;42.178;24.742;2023-08-01T05:49:55;99124.28;;;24.18;100.00
44103;BME280;29769;42.178;24.742;2023-08-01T05:52:40;99122.31;;;23.98;100.00
44103;BME280;29769;42.178;24.742;2023-08-01T05:55:25;99114.38;;;23.96;100.00
44103;BME280;29769;42.178;24.742;2023-08-01T05:58:10;99113.28;;;24.32;100.00
44103;BME280;29769;42.178;24.742;2023-08-01T06:00:55;99112.78;;;24.49;100.00
44103;BME280;29769;42.178;24.742;2023-08-01T06:03:40;99123.31;;;24.52;100.00
44103;BME280;29769;42.178;24.742;2023-08-01T06:06:25;99116.16;;;24.62;100.00
44103;BME280;29769;42.178;24.742;2023-08-01T06:09:10;99129.09;;;24.79;100.00
44103;BME280;29769;42.178;24.742;2023-08-01T06:11:55;99123.97;;;24.76;100.00
44103;BME280;29769;42.178;24.742;2023-08-01T06:14:40;99113.69;;;24.81;100.00
44103;BME280;29769;42.178;24.742;2023-08-01T06:17:25;99120.78;;;24.94;100.00
44103;BME280;29769;42.178;24.742;2023-08-01T06:20:10;99108.19;;;24.83;100.00
44103;BME280;29769;42.178;24.742;2023-08-01T06:22:55;99113.63;;;25.04;100.00
44103;BME280;29769;42.178;24.742;2023-08-01T06:25:40;99099.75;;;25.19;100.00
44103;BME280;29769;42.178;24.742;2023-08-01T06:28:25;99105.34;;;25.28;100.00
44103;BME280;29769;42.178;24.742;2023-08-01T06:31:10;99106.38;;;25.15;100.00
44103;BME280;29769;42.178;24.742;2023-08-01T06:33:54;99101.38;;;25.11;100.00
44103;BME280;29769;42.178;24.742;2023-08-01T06:36:39;99108.63;;;25.31;100.00
44103;BME280;29769;42.178;24.742;2023-08-01T06:39:24;99105.81;;;25.33;97.22
44103;BME280;29769;42.178;24.742;2023-08-01T06:42:09;99094.28;;;25.10;100.00
44103;BME280;29769;42.178;24.742;2023-08-01T06:44:54;99112.34;;;25.19;100.00
44103;BME280;29769;42.178;24.742;2023-08-01T06:47:39;99095.22;;;25.41;100.00
44103;BME280;29769;42.178;24.742;2023-08-01T06:50:24;99111.22;;;25.74;98.42
44103;BME280;29769;42.178;24.742;2023-08-01T06:53:09;99107.91;;;25.91;97.24
44103;BME280;29769;42.178;24.742;2023-08-01T06:55:54;99100.31;;;26.06;97.12
44103;BME280;29769;42.178;24.742;2023-08-01T06:58:40;99102.31;;;26.44;94.47
44103;BME280;29769;42.178;24.742;2023-08-01T07:01:25;99097.41;;;26.68;92.53
44103;BME280;29769;42.178;24.742;2023-08-01T07:04:10;99093.16;;;26.56;90.72
44103;BME280;29769;42.178;24.742;2023-08-01T07:06:56;99110.13;;;26.87;88.66
44103;BME280;29769;42.178;24.742;2023-08-01T07:09:40;99098.91;;;27.11;85.42
44103;BME280;29769;42.178;24.742;2023-08-01T07:12:25;99096.47;;;27.36;83.49
44103;BME280;29769;42.178;24.742;2023-08-01T07:15:10;99104.88;;;27.33;82.60
44103;BME280;29769;42.178;24.742;2023-08-01T07:17:55;99101.56;;;27.78;83.81
44103;BME280;29769;42.178;24.742;2023-08-01T07:20:40;99100.03;;;27.66;80.73
44103;BME280;29769;42.178;24.742;2023-08-01T07:23:25;99094.94;;;28.00;80.12
44103;BME280;29769;42.178;24.742;2023-08-01T07:26:10;99099.16;;;28.49;75.73
44103;BME280;29769;42.178;24.742;2023-08-01T07:29:01;99096.91;;;28.71;70.53
44103;BME280;29769;42.178;24.742;2023-08-01T07:31:46;99087.34;;;29.12;67.43
44103;BME280;29769;42.178;24.742;2023-08-01T07:34:31;99086.56;;;29.81;64.63
44103;BME280;29769;42.178;24.742;2023-08-01T07:37:16;99081.09;;;30.25;61.46
44103;BME280;29769;42.178;24.742;2023-08-01T07:40:01;99082.66;;;30.85;59.17
44103;BME280;29769;42.178;24.742;2023-08-01T07:42:46;99079.94;;;30.85;56.70
44103;BME280;29769;42.178;24.742;2023-08-01T07:45:33;99074.94;;;31.47;55.04
44103;BME280;29769;42.178;24.742;2023-08-01T07:48:19;99075.03;;;32.10;52.30
44103;BME280;29769;42.178;24.742;2023-08-01T07:51:04;99073.47;;;32.55;50.25
44103;BME280;29769;42.178;24.742;2023-08-01T07:53:51;99065.13;;;33.18;47.43
44103;BME280;29769;42.178;24.742;2023-08-01T07:56:36;99071.13;;;33.36;46.70
44103;BME280;29769;42.178;24.742;2023-08-01T07:59:20;99063.75;;;34.26;43.23
44103;BME280;29769;42.178;24.742;2023-08-01T08:02:05;99052.09;;;35.04;41.43
44103;BME280;29769;42.178;24.742;2023-08-01T08:04:50;99071.19;;;35.40;39.80
44103;BME280;29769;42.178;24.742;2023-08-01T08:07:36;99067.03;;;35.65;38.03
44103;BME280;29769;42.178;24.742;2023-08-01T08:10:21;99061.00;;;34.41;40.22
44103;BME280;29769;42.178;24.742;2023-08-01T08:13:06;99050.25;;;34.54;39.25
44103;BME280;29769;42.178;24.742;2023-08-01T08:15:51;99057.97;;;35.99;37.14
44103;BME280;29769;42.178;24.742;2023-08-01T08:18:36;99045.81;;;37.04;35.45
44103;BME280;29769;42.178;24.742;2023-08-01T08:21:21;99042.53;;;37.61;32.65
44103;BME280;29769;42.178;24.742;2023-08-01T08:24:06;99042.06;;;37.31;32.96
44103;BME280;29769;42.178;24.742;2023-08-01T08:26:51;99038.59;;;36.76;32.78
44103;BME280;29769;42.178;24.742;2023-08-01T08:29:36;99041.78;;;34.85;35.58
44103;BME280;29769;42.178;24.742;2023-08-01T08:32:21;99044.28;;;34.29;37.08
44103;BME280;29769;42.178;24.742;2023-08-01T08:35:06;99039.28;;;34.18;37.49
44103;BME280;29769;42.178;24.742;2023-08-01T08:37:50;99029.00;;;34.35;37.06
44103;BME280;29769;42.178;24.742;2023-08-01T08:40:40;99029.34;;;34.97;36.06
44103;BME280;29769;42.178;24.742;2023-08-01T08:43:30;99032.75;;;35.48;34.94
44103;BME280;29769;42.178;24.742;2023-08-01T08:46:16;99023.84;;;34.11;36.84
44103;BME280;29769;42.178;24.742;2023-08-01T08:49:01;99029.22;;;33.15;38.22
44103;BME280;29769;42.178;24.742;2023-08-01T08:51:48;99019.03;;;33.31;38.43
44103;BME280;29769;42.178;24.742;2023-08-01T08:54:32;99016.78;;;34.02;36.95
44103;BME280;29769;42.178;24.742;2023-08-01T08:57:20;99007.88;;;34.44;35.95
44103;BME280;29769;42.178;24.742;2023-08-01T09:00:05;99011.16;;;35.11;34.42
44103;BME280;29769;42.178;24.742;2023-08-01T09:02:50;99009.78;;;35.43;34.05
44103;BME280;29769;42.178;24.742;2023-08-01T09:05:41;98999.38;;;36.22;32.36
44103;BME280;29769;42.178;24.742;2023-08-01T09:08:28;98996.19;;;36.72;31.30
44103;BME280;29769;42.178;24.742;2023-08-01T09:11:14;98999.88;;;37.12;30.22
44103;BME280;29769;42.178;24.742;2023-08-01T09:13:59;98992.47;;;37.39;29.63
44103;BME280;29769;42.178;24.742;2023-08-01T09:16:44;98990.69;;;38.17;28.75
44103;BME280;29769;42.178;24.742;2023-08-01T09:19:29;98999.56;;;38.70;28.75
44103;BME280;29769;42.178;24.742;2023-08-01T09:22:16;99000.09;;;39.17;27.90
44103;BME280;29769;42.178;24.742;2023-08-01T09:25:02;98988.97;;;39.36;27.12
44103;BME280;29769;42.178;24.742;2023-08-01T09:27:46;98974.94;;;40.72;25.82
44103;BME280;29769;42.178;24.742;2023-08-01T09:30:31;98985.13;;;41.78;24.60
44103;BME280;29769;42.178;24.742;2023-08-01T09:33:16;98982.16;;;42.42;23.50
44103;BME280;29769;42.178;24.742;2023-08-01T09:36:02;98978.81;;;43.30;23.24
44103;BME280;29769;42.178;24.742;2023-08-01T09:38:49;98963.47;;;43.39;22.60
44103;BME280;29769;42.178;24.742;2023-08-01T09:41:34;98961.19;;;41.37;23.83
44103;BME280;29769;42.178;24.742;2023-08-01T09:44:19;98972.28;;;42.46;23.40
44103;BME280;29769;42.178;24.742;2023-08-01T09:47:04;98963.75;;;42.76;22.15
44103;BME280;29769;42.178;24.742;2023-08-01T09:49:52;98944.38;;;43.76;21.17
44103;BME280;29769;42.178;24.742;2023-08-01T09:52:39;98954.38;;;44.38;20.89
44103;BME280;29769;42.178;24.742;2023-08-01T09:55:33;98949.34;;;44.61;20.59
44103;BME280;29769;42.178;24.742;2023-08-01T09:58:20;98948.50;;;44.56;20.97
44103;BME280;29769;42.178;24.742;2023-08-01T10:01:06;98953.44;;;43.50;21.81
44103;BME280;29769;42.178;24.742;2023-08-01T10:03:53;98946.66;;;45.20;20.61
44103;BME280;29769;42.178;24.742;2023-08-01T10:06:40;98948.31;;;46.00;19.94
44103;BME280;29769;42.178;24.742;2023-08-01T10:09:29;98938.13;;;45.69;19.89
44103;BME280;29769;42.178;24.742;2023-08-01T10:12:15;98935.88;;;41.63;23.44
44103;BME280;29769;42.178;24.742;2023-08-01T10:15:03;98931.50;;;44.25;21.47
44103;BME280;29769;42.178;24.742;2023-08-01T10:17:48;98925.25;;;46.05;19.58
44103;BME280;29769;42.178;24.742;2023-08-01T10:20:35;98931.97;;;46.96;18.62
44103;BME280;29769;42.178;24.742;2023-08-01T10:23:20;98919.38;;;47.69;18.35
44103;BME280;29769;42.178;24.742;2023-08-01T10:26:07;98920.50;;;47.43;18.88
44103;BME280;29769;42.178;24.742;2023-08-01T10:28:53;98917.38;;;47.85;18.31
44103;BME280;29769;42.178;24.742;2023-08-01T10:31:38;98912.66;;;47.76;18.26
44103;BME280;29769;42.178;24.742;2023-08-01T10:34:23;98912.03;;;47.94;18.02
44103;BME280;29769;42.178;24.742;2023-08-01T10:37:08;98906.28;;;47.70;18.23
44103;BME280;29769;42.178;24.742;2023-08-01T10:39:58;98896.00;;;48.35;17.95
44103;BME280;29769;42.178;24.742;2023-08-01T10:42:44;98892.94;;;47.52;17.88
44103;BME280;29769;42.178;24.742;2023-08-01T10:45:29;98875.91;;;46.47;18.75
44103;BME280;29769;42.178;24.742;2023-08-01T10:48:14;98901.31;;;47.21;18.11
44103;BME280;29769;42.178;24.742;2023-08-01T10:50:59;98886.94;;;45.59;19.68
44103;BME280;29769;42.178;24.742;2023-08-01T10:53:47;98888.72;;;46.43;19.24
44103;BME280;29769;42.178;24.742;2023-08-01T10:56:32;98867.63;;;46.77;18.69
44103;BME280;29769;42.178;24.742;2023-08-01T10:59:18;98871.03;;;45.45;19.46
44103;BME280;29769;42.178;24.742;2023-08-01T11:02:03;98865.97;;;43.93;21.18
44103;BME280;29769;42.178;24.742;2023-08-01T11:04:59;98869.19;;;45.61;19.83
44103;BME280;29769;42.178;24.742;2023-08-01T11:10:40;98855.03;;;46.50;18.68
44103;BME280;29769;42.178;24.742;2023-08-01T11:13:25;98848.56;;;47.70;17.96
44103;BME280;29769;42.178;24.742;2023-08-01T11:16:11;98840.66;;;47.98;17.87
44103;BME280;29769;42.178;24.742;2023-08-01T11:18:57;98834.13;;;47.63;18.06
44103;BME280;29769;42.178;24.742;2023-08-01T11:21:42;98835.59;;;48.54;17.23
44103;BME280;29769;42.178;24.742;2023-08-01T11:24:27;98833.31;;;48.61;17.15
44103;BME280;29769;42.178;24.742;2023-08-01T11:27:12;98834.81;;;47.89;17.98
44103;BME280;29769;42.178;24.742;2023-08-01T11:29:57;98821.25;;;47.78;17.74
44103;BME280;29769;42.178;24.742;2023-08-01T11:32:42;98823.66;;;47.94;17.56
44103;BME280;29769;42.178;24.742;2023-08-01T11:35:26;98821.00;;;45.97;18.70
44103;BME280;29769;42.178;24.742;2023-08-01T11:38:12;98813.78;;;46.06;18.74
44103;BME280;29769;42.178;24.742;2023-08-01T11:40:57;98814.44;;;46.84;18.74
44103;BME280;29769;42.178;24.742;2023-08-01T11:43:43;98798.88;;;46.98;18.21
44103;BME280;29769;42.178;24.742;2023-08-01T11:46:33;98806.38;;;46.37;18.69
44103;BME280;29769;42.178;24.742;2023-08-01T11:49:18;98809.19;;;46.93;18.35
44103;BME280;29769;42.178;24.742;2023-08-01T11:52:03;98808.03;;;47.09;17.99
44103;BME280;29769;42.178;24.742;2023-08-01T11:54:48;98804.69;;;47.32;17.72
44103;BME280;29769;42.178;24.742;2023-08-01T11:57:33;98805.53;;;46.36;18.46
44103;BME280;29769;42.178;24.742;2023-08-01T12:00:22;98795.16;;;45.96;19.61
44103;BME280;29769;42.178;24.742;2023-08-01T12:03:09;98793.59;;;46.81;18.59
44103;BME280;29769;42.178;24.742;2023-08-01T12:06:06;98783.53;;;44.63;20.32
44103;BME280;29769;42.178;24.742;2023-08-01T12:08:52;98785.69;;;46.08;19.35
44103;BME280;29769;42.178;24.742;2023-08-01T12:11:38;98778.81;;;46.25;19.35
44103;BME280;29769;42.178;24.742;2023-08-01T12:14:23;98771.97;;;47.58;18.11
44103;BME280;29769;42.178;24.742;2023-08-01T12:17:08;98776.44;;;48.13;17.40
44103;BME280;29769;42.178;24.742;2023-08-01T12:19:52;98781.88;;;47.00;18.30
44103;BME280;29769;42.178;24.742;2023-08-01T12:22:38;98767.81;;;44.15;20.14
44103;BME280;29769;42.178;24.742;2023-08-01T12:25:22;98766.25;;;44.56;20.65
44103;BME280;29769;42.178;24.742;2023-08-01T12:28:07;98751.81;;;45.33;19.66
44103;BME280;29769;42.178;24.742;2023-08-01T12:30:52;98762.41;;;42.45;22.36
44103;BME280;29769;42.178;24.742;2023-08-01T12:33:38;98758.50;;;43.13;21.87
44103;BME280;29769;42.178;24.742;2023-08-01T12:36:23;98746.09;;;44.66;20.89
44103;BME280;29769;42.178;24.742;2023-08-01T12:39:07;98749.97;;;45.54;19.93
44103;BME280;29769;42.178;24.742;2023-08-01T12:41:55;98753.78;;;46.71;19.28
44103;BME280;29769;42.178;24.742;2023-08-01T12:44:40;98750.41;;;44.89;20.08
44103;BME280;29769;42.178;24.742;2023-08-01T12:47:25;98734.72;;;45.04;20.10
44103;BME280;29769;42.178;24.742;2023-08-01T12:50:10;98733.84;;;45.46;20.09
44103;BME280;29769;42.178;24.742;2023-08-01T12:52:55;98739.25;;;43.61;21.24
44103;BME280;29769;42.178;24.742;2023-08-01T12:55:44;98734.13;;;43.53;20.90
44103;BME280;29769;42.178;24.742;2023-08-01T12:58:29;98730.88;;;43.56;21.19
44103;BME280;29769;42.178;24.742;2023-08-01T13:01:14;98726.84;;;44.54;20.75
44103;BME280;29769;42.178;24.742;2023-08-01T13:03:59;98724.66;;;44.56;20.24
44103;BME280;29769;42.178;24.742;2023-08-01T13:06:44;98720.94;;;44.41;20.57
44103;BME280;29769;42.178;24.742;2023-08-01T13:09:29;98723.47;;;44.79;20.35
44103;BME280;29769;42.178;24.742;2023-08-01T13:12:14;98710.31;;;44.01;20.35
44103;BME280;29769;42.178;24.742;2023-08-01T13:14:59;98714.19;;;44.32;20.46
44103;BME280;29769;42.178;24.742;2023-08-01T13:17:44;98712.31;;;44.37;20.33
44103;BME280;29769;42.178;24.742;2023-08-01T13:20:29;98700.13;;;44.11;20.85
44103;BME280;29769;42.178;24.742;2023-08-01T13:23:14;98704.69;;;44.59;20.41
44103;BME280;29769;42.178;24.742;2023-08-01T13:25:58;98705.03;;;44.63;20.03
44103;BME280;29769;42.178;24.742;2023-08-01T13:28:46;98701.47;;;44.72;19.84
44103;BME280;29769;42.178;24.742;2023-08-01T13:31:31;98693.00;;;45.46;19.83
44103;BME280;29769;42.178;24.742;2023-08-01T13:34:16;98685.66;;;45.15;19.38
44103;BME280;29769;42.178;24.742;2023-08-01T13:37:02;98684.97;;;44.98;19.73
44103;BME280;29769;42.178;24.742;2023-08-01T13:39:47;98688.44;;;45.25;19.64
44103;BME280;29769;42.178;24.742;2023-08-01T13:42:32;98682.63;;;44.69;20.04
44103;BME280;29769;42.178;24.742;2023-08-01T13:45:17;98681.63;;;44.96;19.68
44103;BME280;29769;42.178;24.742;2023-08-01T13:48:02;98677.38;;;44.78;20.00
44103;BME280;29769;42.178;24.742;2023-08-01T13:50:47;98680.38;;;45.19;19.58
44103;BME280;29769;42.178;24.742;2023-08-01T13:53:32;98679.81;;;44.64;19.79
44103;BME280;29769;42.178;24.742;2023-08-01T13:56:17;98670.00;;;44.20;20.52
44103;BME280;29769;42.178;24.742;2023-08-01T13:59:01;98665.63;;;44.61;19.87
44103;BME280;29769;42.178;24.742;2023-08-01T14:01:46;98669.50;;;45.12;19.70
44103;BME280;29769;42.178;24.742;2023-08-01T14:04:31;98663.81;;;44.45;20.06
44103;BME280;29769;42.178;24.742;2023-08-01T14:07:16;98667.84;;;43.95;19.99
44103;BME280;29769;42.178;24.742;2023-08-01T14:10:01;98664.75;;;44.23;20.14
44103;BME280;29769;42.178;24.742;2023-08-01T14:12:46;98664.88;;;44.34;19.68
44103;BME280;29769;42.178;24.742;2023-08-01T14:15:31;98651.31;;;43.78;20.44
44103;BME280;29769;42.178;24.742;2023-08-01T14:18:16;98662.09;;;42.66;21.98
44103;BME280;29769;42.178;24.742;2023-08-01T14:21:01;98661.94;;;41.89;22.50